Terminal Aerodrome Forecast
Issued by NWS

Home | Current Version | Previous Version | Text Only | Print | Product List | Glossary On
Versions: 1 2 3 4 5 6 7 8 9 10 11 12 13 14 15 16 17 18 19 20 21 22 23 24 25 26
000
FTUS45 KPSR 182300
TAFPHX
TAF
KPHX 182321Z 1900/1924 14007KT P6SM VCSH FEW060 SCT080 BKN100
     FM190200 10005KT P6SM FEW080 BKN120
     FM191900 27005KT P6SM VCSH SCT080 BKN140 BKN200=

USA.gov is the U.S. government's official web portal to all federal, state and local government web resources and services.